North Platte, Nebraska
Current Conditions -  °F | °C
As of 12:53 AM on Monday 22 Dec 2014 (Local Time) from KLBF Reporting Station
Few Clouds Few Clouds  
Wind Chill: 23°   Ceiling: Unl
Heat Index: 28°   Visibility: 8mi
Dew Point: 26°   Wind: 5mph
Humidity: 92%   Direction: 310°NW
Pressure: 29.52"   Gusts: NA
Location:  41.14°N, 100.76°W
Report Text: KLBF 220653Z AUTO 31004KT 8SM FEW085 M02/M03 A2952 RMK AO2 SLP009 T10221033 $
Loading
Personal Weather Stations






























Interactive Weather Map New forecast layout! Learn more

10-Day Weather Forecast

Advertisements
Track Severe Weather on mobile